createdAt,value
2022-08-26T00:02:07.590Z,19.35
2022-08-26T00:04:36.457Z,17.95
2022-08-26T00:07:05.709Z,23.85
2022-08-26T00:09:38.959Z,23.17
2022-08-26T00:12:09.443Z,21.30
2022-08-26T00:14:42.475Z,21.77
2022-08-26T00:17:11.586Z,20.90
2022-08-26T00:19:40.032Z,21.48
2022-08-26T00:22:08.749Z,20.98
2022-08-26T00:24:37.198Z,22.33
2022-08-26T00:27:06.502Z,20.77
2022-08-26T00:29:35.628Z,21.83
2022-08-26T00:32:08.023Z,22.02
2022-08-26T00:34:36.607Z,22.73
2022-08-26T00:37:09.379Z,21.20
2022-08-26T00:39:38.827Z,21.58
2022-08-26T00:42:07.647Z,19.92
2022-08-26T00:44:36.038Z,19.75
2022-08-26T00:47:07.951Z,21.80
2022-08-26T00:49:39.699Z,21.92
2022-08-26T00:52:11.925Z,25.58
2022-08-26T00:54:46.755Z,21.38
2022-08-26T00:57:16.758Z,24.75
2022-08-26T00:59:46.548Z,25.52
2022-08-26T01:02:20.945Z,21.95
2022-08-26T01:04:55.892Z,21.73
2022-08-26T01:07:26.211Z,24.38
2022-08-26T01:09:56.435Z,25.60
2022-08-26T01:12:30.061Z,24.45
2022-08-26T01:14:58.488Z,22.70
2022-08-26T01:17:26.989Z,25.65
2022-08-26T01:20:00.609Z,28.50
2022-08-26T01:22:33.097Z,28.30
2022-08-26T01:25:03.884Z,23.67
2022-08-26T01:27:33.824Z,26.75
2022-08-26T01:30:03.540Z,22.75
2022-08-26T01:32:33.717Z,21.80
2022-08-26T01:35:02.731Z,21.33
2022-08-26T01:37:34.805Z,22.05
2022-08-26T01:40:06.036Z,22.63
2022-08-26T01:42:34.811Z,22.60
2022-08-26T01:45:06.676Z,23.67
2022-08-26T01:47:36.348Z,22.30
2022-08-26T01:50:08.037Z,22.90
2022-08-26T01:52:37.993Z,23.88
2022-08-26T01:55:09.251Z,27.50
2022-08-26T01:57:38.045Z,24.67
2022-08-26T02:00:09.336Z,25.73
2022-08-26T02:02:40.570Z,27.38
2022-08-26T02:05:13.333Z,26.00
2022-08-26T02:07:42.226Z,27.83
2022-08-26T02:10:13.154Z,27.42
2022-08-26T02:12:42.364Z,25.45
2022-08-26T02:15:12.812Z,28.40
2022-08-26T02:17:44.453Z,30.67
2022-08-26T02:20:14.944Z,29.60
2022-08-26T02:22:45.242Z,28.20
2022-08-26T02:25:21.492Z,30.00
2022-08-26T02:27:51.495Z,29.88
2022-08-26T02:30:21.022Z,26.30
2022-08-26T02:32:49.772Z,27.90
2022-08-26T02:35:20.347Z,25.83
2022-08-26T02:37:50.094Z,27.33
2022-08-26T02:40:22.667Z,27.73
2022-08-26T02:42:53.045Z,25.83
2022-08-26T02:45:24.955Z,27.88
2022-08-26T02:47:53.539Z,29.52
2022-08-26T02:50:22.301Z,29.75
2022-08-26T02:52:51.640Z,27.83
2022-08-26T02:55:21.892Z,26.85
2022-08-26T02:57:53.247Z,26.35
2022-08-26T03:00:21.872Z,27.95
2022-08-26T03:02:52.244Z,29.58
2022-08-26T03:05:22.191Z,29.15
2022-08-26T03:07:53.002Z,29.23
2022-08-26T03:10:25.973Z,25.83
2022-08-26T03:12:54.608Z,31.58
2022-08-26T03:15:23.028Z,32.28
2022-08-26T03:17:51.446Z,29.08
2022-08-26T03:20:20.179Z,29.17
2022-08-26T03:22:51.435Z,28.63
2022-08-26T03:25:19.864Z,28.52
2022-08-26T03:27:49.694Z,31.05
2022-08-26T03:30:36.138Z,30.58
2022-08-26T03:33:05.164Z,28.20
2022-08-26T03:35:34.165Z,29.13
2022-08-26T03:38:03.360Z,28.05
2022-08-26T03:40:33.855Z,33.92
2022-08-26T03:43:03.973Z,31.40
2022-08-26T03:45:32.650Z,29.42
2022-08-26T03:48:01.208Z,32.47
2022-08-26T03:50:30.742Z,33.10
2022-08-26T03:53:03.447Z,31.33
2022-08-26T03:55:33.494Z,28.05
2022-08-26T03:58:02.553Z,33.88
2022-08-26T04:00:32.715Z,32.50
2022-08-26T04:03:03.101Z,31.02
2022-08-26T04:05:31.811Z,29.65
2022-08-26T04:08:00.255Z,33.92
2022-08-26T04:10:29.532Z,34.40
2022-08-26T04:12:58.890Z,32.92
2022-08-26T04:15:28.100Z,33.58
2022-08-26T04:17:58.344Z,33.15
2022-08-26T04:20:27.094Z,31.60
2022-08-26T04:22:55.556Z,32.42
2022-08-26T04:25:24.335Z,34.38
2022-08-26T04:27:53.204Z,35.78
2022-08-26T04:30:22.181Z,36.33
2022-08-26T04:32:50.614Z,38.97
2022-08-26T04:35:25.724Z,40.38
2022-08-26T04:37:54.330Z,40.78
2022-08-26T04:40:23.153Z,42.45
2022-08-26T04:42:51.984Z,40.92
2022-08-26T04:45:22.879Z,38.83
2022-08-26T04:47:54.685Z,36.45
2022-08-26T04:50:25.832Z,35.05
2022-08-26T04:52:55.432Z,37.42
2022-08-26T04:55:38.209Z,38.95
2022-08-26T04:58:10.339Z,37.60
2022-08-26T05:00:39.659Z,38.00
2022-08-26T05:03:10.520Z,37.60
2022-08-26T05:05:41.475Z,36.25
2022-08-26T05:08:11.285Z,32.45
2022-08-26T05:10:43.563Z,29.55
2022-08-26T05:13:15.187Z,28.98
2022-08-26T05:15:44.208Z,25.67
2022-08-26T05:18:13.908Z,24.17
2022-08-26T05:20:45.074Z,20.27
2022-08-26T05:23:15.587Z,19.95
2022-08-26T05:25:45.632Z,19.33
2022-08-26T05:28:14.944Z,17.33
2022-08-26T05:30:44.620Z,14.32
2022-08-26T05:33:13.322Z,15.13
2022-08-26T05:35:42.286Z,15.60
2022-08-26T05:38:13.252Z,13.80
2022-08-26T05:40:43.260Z,13.85
2022-08-26T05:43:11.916Z,13.60
2022-08-26T05:45:45.910Z,13.95
2022-08-26T05:48:15.580Z,12.60
2022-08-26T05:50:45.341Z,12.57
2022-08-26T05:53:17.467Z,12.35
2022-08-26T05:55:46.904Z,12.13
2022-08-26T05:58:15.330Z,12.02
2022-08-26T06:00:46.357Z,11.52
2022-08-26T06:03:14.814Z,10.90
2022-08-26T06:05:46.847Z,10.00
2022-08-26T06:08:19.269Z,12.65
2022-08-26T06:10:48.540Z,11.35
2022-08-26T06:13:18.387Z,10.52
2022-08-26T06:15:48.472Z,11.00
2022-08-26T06:18:18.003Z,10.65
2022-08-26T06:20:57.689Z,11.35
2022-08-26T06:23:46.445Z,10.23
2022-08-26T06:26:15.674Z,8.48
2022-08-26T06:28:45.447Z,10.23
2022-08-26T06:31:14.603Z,9.55
2022-08-26T06:33:43.609Z,8.45
2022-08-26T06:36:16.963Z,8.48
2022-08-26T06:41:18.131Z,8.05
2022-08-26T06:43:46.291Z,7.47
2022-08-26T06:46:17.296Z,7.28
2022-08-26T06:48:46.597Z,7.15
2022-08-26T06:51:17.249Z,6.70
2022-08-26T06:53:47.123Z,7.32
2022-08-26T06:56:21.021Z,6.70
2022-08-26T06:58:50.164Z,7.00
2022-08-26T07:01:20.402Z,7.55
2022-08-26T07:03:50.724Z,7.97
2022-08-26T07:06:20.289Z,6.57
2022-08-26T07:08:49.103Z,7.25
2022-08-26T07:11:19.521Z,7.30
2022-08-26T07:13:48.939Z,6.35
2022-08-26T07:16:19.072Z,7.05
2022-08-26T07:18:48.600Z,6.80
2022-08-26T07:21:18.366Z,6.35
2022-08-26T07:23:47.021Z,6.78
2022-08-26T07:26:17.287Z,6.75
2022-08-26T07:28:49.036Z,6.65
2022-08-26T07:31:18.687Z,7.15
2022-08-26T07:33:46.983Z,6.78
2022-08-26T07:36:17.725Z,6.95
2022-08-26T07:38:50.527Z,6.82
2022-08-26T07:41:22.844Z,8.02
2022-08-26T07:43:53.933Z,7.82
2022-08-26T07:46:27.451Z,7.72
2022-08-26T07:48:59.707Z,8.00
2022-08-26T07:51:28.763Z,7.70
2022-08-26T07:53:57.632Z,8.57
2022-08-26T07:56:26.313Z,8.50
2022-08-26T07:58:57.147Z,8.88
2022-08-26T08:01:29.105Z,9.02
2022-08-26T08:04:00.543Z,8.00
2022-08-26T08:06:30.916Z,7.90
2022-08-26T08:09:00.988Z,8.00
2022-08-26T08:11:31.241Z,7.95
2022-08-26T08:14:01.871Z,7.68
2022-08-26T08:16:38.161Z,6.82
2022-08-26T08:19:12.935Z,7.07
2022-08-26T08:21:41.784Z,6.57
2022-08-26T08:24:10.253Z,6.70
2022-08-26T08:26:39.006Z,7.05
2022-08-26T08:29:09.692Z,6.43
2022-08-26T08:31:56.203Z,6.53
2022-08-26T08:34:26.084Z,6.55
2022-08-26T08:36:54.455Z,6.07
2022-08-26T08:39:22.730Z,6.85
2022-08-26T08:42:08.538Z,6.90
2022-08-26T08:44:43.037Z,7.22
2022-08-26T08:49:45.550Z,6.70
2022-08-26T08:52:28.557Z,7.00
2022-08-26T08:54:57.648Z,6.65
2022-08-26T08:57:33.296Z,6.95
2022-08-26T09:00:12.020Z,6.28
2022-08-26T09:02:50.553Z,6.50
2022-08-26T09:05:23.654Z,6.95
2022-08-26T09:07:58.589Z,7.32
2022-08-26T09:10:33.769Z,6.30
2022-08-26T09:13:08.601Z,7.25
2022-08-26T09:15:51.160Z,7.40
2022-08-26T09:18:40.804Z,6.72
2022-08-26T09:21:12.229Z,6.47
2022-08-26T09:23:43.032Z,6.88
2022-08-26T09:26:18.129Z,7.65
2022-08-26T09:28:51.046Z,7.97
2022-08-26T09:31:25.498Z,7.35
2022-08-26T09:34:08.084Z,8.10
2022-08-26T09:36:41.151Z,7.57
2022-08-26T09:39:31.352Z,6.95
2022-08-26T09:42:10.423Z,7.10
2022-08-26T09:44:54.924Z,7.05
2022-08-26T09:47:31.635Z,7.45
2022-08-26T09:50:04.734Z,7.47
2022-08-26T09:52:40.392Z,6.82
2022-08-26T09:55:14.914Z,7.70
2022-08-26T09:57:51.163Z,7.32
2022-08-26T10:00:30.752Z,7.63
2022-08-26T10:03:02.944Z,8.43
2022-08-26T10:05:36.655Z,8.45
2022-08-26T10:08:21.245Z,8.05
2022-08-26T10:10:53.272Z,7.70
2022-08-26T10:13:44.519Z,8.77
2022-08-26T10:16:18.732Z,8.07
2022-08-26T10:18:56.845Z,8.88
2022-08-26T10:21:32.258Z,8.73
2022-08-26T10:24:03.653Z,8.63
2022-08-26T10:26:41.331Z,9.20
2022-08-26T10:29:14.463Z,9.20
2022-08-26T10:31:51.427Z,10.05
2022-08-26T10:34:21.690Z,8.15
2022-08-26T10:37:14.383Z,8.45
2022-08-26T10:39:55.236Z,9.48
2022-08-26T10:42:33.436Z,8.63
2022-08-26T10:45:07.614Z,10.00
2022-08-26T10:47:48.960Z,9.88
2022-08-26T10:50:25.698Z,10.18
2022-08-26T10:53:00.850Z,8.60
2022-08-26T10:55:38.422Z,8.48
2022-08-26T10:58:33.334Z,8.30
2022-08-26T11:01:27.031Z,8.30
2022-08-26T11:04:01.314Z,7.93
2022-08-26T11:06:32.876Z,8.90
2022-08-26T11:09:03.459Z,9.50
2022-08-26T11:11:53.650Z,7.63
2022-08-26T11:14:46.092Z,7.78
2022-08-26T11:17:58.198Z,8.27
2022-08-26T11:20:39.659Z,7.95
2022-08-26T11:23:50.436Z,8.05
2022-08-26T11:26:43.147Z,7.55
2022-08-26T11:29:13.546Z,7.50
2022-08-26T11:31:57.165Z,7.32
2022-08-26T11:34:56.738Z,7.00
2022-08-26T11:37:33.412Z,6.45
2022-08-26T11:40:05.553Z,8.13
2022-08-26T11:42:41.679Z,8.52
2022-08-26T11:45:20.425Z,4.97
2022-08-26T11:47:51.124Z,10.93
2022-08-26T11:50:23.541Z,12.52
2022-08-26T11:52:53.765Z,9.70
2022-08-26T11:55:24.281Z,6.70
2022-08-26T11:57:55.806Z,6.40
2022-08-26T12:00:28.319Z,5.60
2022-08-26T12:03:06.916Z,7.40
2022-08-26T12:05:39.596Z,6.97
2022-08-26T12:08:11.299Z,8.15
2022-08-26T12:10:43.301Z,7.55
2022-08-26T12:13:22.732Z,8.65
2022-08-26T12:15:56.657Z,8.20
2022-08-26T12:18:31.713Z,8.30
2022-08-26T12:21:02.513Z,8.80
2022-08-26T12:23:50.867Z,8.45
2022-08-26T12:26:28.493Z,8.77
2022-08-26T12:29:01.917Z,7.18
2022-08-26T12:31:45.760Z,7.18
2022-08-26T12:34:19.186Z,6.15
2022-08-26T12:36:51.664Z,7.05
2022-08-26T12:39:28.392Z,7.75
2022-08-26T12:42:00.283Z,6.60
2022-08-26T12:44:54.223Z,7.75
2022-08-26T12:47:42.405Z,9.55
2022-08-26T12:50:20.529Z,9.55
2022-08-26T12:53:10.697Z,9.02
2022-08-26T12:55:43.892Z,10.45
2022-08-26T12:58:32.253Z,9.68
2022-08-26T13:01:23.261Z,9.93
2022-08-26T13:03:54.664Z,9.90
2022-08-26T13:06:29.967Z,9.70
2022-08-26T13:09:00.766Z,8.90
2022-08-26T13:11:35.301Z,10.27
2022-08-26T13:14:08.786Z,10.77
2022-08-26T13:16:38.736Z,10.40
2022-08-26T13:19:10.705Z,10.02
2022-08-26T13:21:44.895Z,8.93
2022-08-26T13:24:15.705Z,8.30
2022-08-26T13:26:46.984Z,8.82
2022-08-26T13:29:20.551Z,8.32
2022-08-26T13:31:49.605Z,9.23
2022-08-26T13:34:21.284Z,8.27
2022-08-26T13:36:50.936Z,8.80
2022-08-26T13:39:20.026Z,8.80
2022-08-26T13:41:48.364Z,8.75
2022-08-26T13:44:18.195Z,9.73
2022-08-26T13:46:46.971Z,9.82
2022-08-26T13:49:15.590Z,9.95
2022-08-26T13:51:43.855Z,8.57
2022-08-26T13:54:12.034Z,7.22
2022-08-26T13:56:40.401Z,9.40
2022-08-26T13:59:08.616Z,8.80
2022-08-26T14:01:38.238Z,8.80
2022-08-26T14:04:06.473Z,8.60
2022-08-26T14:06:34.725Z,8.10
2022-08-26T14:09:03.225Z,8.40
2022-08-26T14:11:41.184Z,9.60
2022-08-26T14:14:19.506Z,9.68
2022-08-26T14:16:58.938Z,9.52
2022-08-26T14:19:28.583Z,10.23
2022-08-26T14:21:57.130Z,9.63
2022-08-26T14:24:25.466Z,8.90
2022-08-26T14:26:53.679Z,9.73
2022-08-26T14:29:22.073Z,9.80
2022-08-26T14:31:52.618Z,10.80
2022-08-26T14:34:21.316Z,9.60
2022-08-26T14:36:49.546Z,10.23
2022-08-26T14:39:17.791Z,11.02
2022-08-26T14:41:53.887Z,10.65
2022-08-26T14:44:25.269Z,10.48
2022-08-26T14:46:55.606Z,11.02
2022-08-26T14:49:27.293Z,10.38
2022-08-26T14:51:56.476Z,11.20
2022-08-26T14:54:23.791Z,11.95
2022-08-26T14:56:54.508Z,10.55
2022-08-26T14:59:25.538Z,10.43
2022-08-26T15:01:56.253Z,10.48
2022-08-26T15:04:26.264Z,10.98
2022-08-26T15:06:56.084Z,10.38
2022-08-26T15:09:25.099Z,9.43
2022-08-26T15:11:54.356Z,9.35
2022-08-26T15:14:23.220Z,9.57
2022-08-26T15:16:53.464Z,8.82
2022-08-26T15:19:24.353Z,8.75
2022-08-26T15:21:52.654Z,8.10
2022-08-26T15:24:23.600Z,7.57
2022-08-26T15:26:53.454Z,7.15
2022-08-26T15:29:22.890Z,6.65
2022-08-26T15:31:51.523Z,6.50
2022-08-26T15:34:27.059Z,6.30
2022-08-26T15:36:55.591Z,6.03
2022-08-26T15:39:37.252Z,6.20
2022-08-26T15:42:06.011Z,6.22
2022-08-26T15:44:37.199Z,6.97
2022-08-26T15:47:05.545Z,6.90
2022-08-26T15:49:35.246Z,6.53
2022-08-26T15:52:05.481Z,5.95
2022-08-26T15:54:34.451Z,6.32
2022-08-26T15:57:04.652Z,5.20
2022-08-26T15:59:33.605Z,6.05
2022-08-26T16:02:02.190Z,6.10
2022-08-26T16:04:30.404Z,5.93
2022-08-26T16:06:59.980Z,6.75
2022-08-26T16:09:28.978Z,6.75
2022-08-26T16:11:57.878Z,5.35
2022-08-26T16:14:26.938Z,6.80
2022-08-26T16:16:56.541Z,6.43
2022-08-26T16:19:24.704Z,6.25
2022-08-26T16:21:52.917Z,7.10
2022-08-26T16:24:28.461Z,7.22
2022-08-26T16:26:58.515Z,6.40
2022-08-26T16:29:26.771Z,5.72
2022-08-26T16:31:55.207Z,6.55
2022-08-26T16:34:24.281Z,6.15
2022-08-26T16:36:53.278Z,6.22
2022-08-26T16:39:24.782Z,6.55
2022-08-26T16:41:53.194Z,6.53
2022-08-26T16:44:22.250Z,6.10
2022-08-26T16:46:50.671Z,6.43
2022-08-26T16:49:26.572Z,6.60
2022-08-26T16:51:54.659Z,5.63
2022-08-26T16:54:24.816Z,6.07
2022-08-26T16:56:53.007Z,6.75
2022-08-26T16:59:24.853Z,7.57
2022-08-26T17:01:53.484Z,8.18
2022-08-26T17:04:22.052Z,9.35
2022-08-26T17:06:50.887Z,9.73
2022-08-26T17:09:19.442Z,8.75
2022-08-26T17:11:52.851Z,8.93
2022-08-26T17:14:21.128Z,8.85
2022-08-26T17:16:51.306Z,9.15
2022-08-26T17:19:20.832Z,15.23
2022-08-26T17:21:50.361Z,14.30
2022-08-26T17:24:19.072Z,12.00
2022-08-26T17:26:54.332Z,11.25
2022-08-26T17:29:24.535Z,9.50
2022-08-26T17:31:54.127Z,10.88
2022-08-26T17:34:23.349Z,10.55
2022-08-26T17:36:51.676Z,9.40
2022-08-26T17:39:20.497Z,9.27
2022-08-26T17:41:50.466Z,9.30
2022-08-26T17:44:18.979Z,11.00
2022-08-26T17:46:47.732Z,9.82
2022-08-26T17:49:16.005Z,9.30
2022-08-26T17:51:44.292Z,10.00
2022-08-26T17:54:12.453Z,11.20
2022-08-26T17:56:40.653Z,19.83
2022-08-26T17:59:11.311Z,15.25
2022-08-26T18:01:40.971Z,12.95
2022-08-26T18:04:32.593Z,15.35
2022-08-26T18:07:01.418Z,11.10
2022-08-26T18:09:31.266Z,11.65
2022-08-26T18:12:00.294Z,12.50
2022-08-26T18:14:30.399Z,11.77
2022-08-26T18:16:58.660Z,10.80
2022-08-26T18:19:26.943Z,12.38
2022-08-26T18:22:23.303Z,14.13
2022-08-26T18:24:58.781Z,22.55
2022-08-26T18:27:27.880Z,14.70
2022-08-26T18:29:58.744Z,13.80
2022-08-26T18:32:27.554Z,15.15
2022-08-26T18:34:58.258Z,16.98
2022-08-26T18:37:29.576Z,23.80
2022-08-26T18:40:01.293Z,21.90
2022-08-26T18:42:30.077Z,16.17
2022-08-26T18:45:00.069Z,15.75
2022-08-26T18:47:30.370Z,19.63
2022-08-26T18:49:59.093Z,17.02
2022-08-26T18:52:27.657Z,17.23
2022-08-26T18:54:56.290Z,15.95
2022-08-26T18:57:25.240Z,17.33
2022-08-26T18:59:54.093Z,15.95
2022-08-26T19:02:24.647Z,16.73
2022-08-26T19:04:53.752Z,18.88
2022-08-26T19:07:22.985Z,17.08
2022-08-26T19:09:54.013Z,16.10
2022-08-26T19:12:22.869Z,16.50
2022-08-26T19:14:55.488Z,16.40
2022-08-26T19:17:25.835Z,16.92
2022-08-26T19:19:54.647Z,16.35
2022-08-26T19:22:23.307Z,16.63
2022-08-26T19:24:53.115Z,20.52
2022-08-26T19:27:22.827Z,20.67
2022-08-26T19:29:52.191Z,17.58
2022-08-26T19:32:24.705Z,19.55
2022-08-26T19:34:55.802Z,17.60
2022-08-26T19:37:26.441Z,15.05
2022-08-26T19:39:55.687Z,14.05
2022-08-26T19:42:26.097Z,17.65
2022-08-26T19:45:24.630Z,16.38
2022-08-26T19:47:55.733Z,16.75
2022-08-26T19:50:28.912Z,15.57
2022-08-26T19:52:58.665Z,16.27
2022-08-26T19:55:29.918Z,15.85
2022-08-26T19:57:59.733Z,14.55
2022-08-26T20:00:31.951Z,16.70
2022-08-26T20:03:01.727Z,15.25
2022-08-26T20:05:31.965Z,15.43
2022-08-26T20:08:00.907Z,18.92
2022-08-26T20:10:29.263Z,24.92
2022-08-26T20:12:57.391Z,18.95
2022-08-26T20:15:25.612Z,21.25
2022-08-26T20:17:57.721Z,24.10
2022-08-26T20:20:43.189Z,25.67
2022-08-26T20:23:12.713Z,44.40
2022-08-26T20:25:42.845Z,47.28
2022-08-26T20:28:11.154Z,38.33
2022-08-26T20:30:39.776Z,47.40
2022-08-26T20:33:07.941Z,38.30
2022-08-26T20:35:36.153Z,33.17
2022-08-26T20:38:05.776Z,39.10
2022-08-26T20:40:35.667Z,33.90
2022-08-26T20:43:06.341Z,25.02
2022-08-26T20:45:34.727Z,23.30
2022-08-26T20:48:03.637Z,23.83
2022-08-26T20:50:32.729Z,28.23
2022-08-26T20:53:13.070Z,27.58
2022-08-26T20:55:45.009Z,23.13
2022-08-26T20:58:13.500Z,21.27
2022-08-26T21:00:42.340Z,22.20
2022-08-26T21:03:10.740Z,22.52
2022-08-26T21:05:39.067Z,22.33
2022-08-26T21:08:07.299Z,22.85
2022-08-26T21:10:39.793Z,22.05
2022-08-26T21:13:09.532Z,22.83
2022-08-26T21:15:37.743Z,22.48
2022-08-26T21:18:06.437Z,21.83
2022-08-26T21:20:34.699Z,23.95
2022-08-26T21:23:02.992Z,22.73
2022-08-26T21:25:31.387Z,23.88
2022-08-26T21:27:59.917Z,24.90
2022-08-26T21:30:29.971Z,23.42
2022-08-26T21:32:58.870Z,25.20
2022-08-26T21:35:27.476Z,25.67
2022-08-26T21:37:56.066Z,26.10
2022-08-26T21:40:24.631Z,25.20
2022-08-26T21:42:53.221Z,24.90
2022-08-26T21:45:22.118Z,25.83
2022-08-26T21:47:52.727Z,26.88
2022-08-26T21:50:21.686Z,25.23
2022-08-26T21:52:50.287Z,23.50
2022-08-26T21:55:19.044Z,24.05
2022-08-26T21:57:53.107Z,23.90
2022-08-26T22:00:22.030Z,25.27
2022-08-26T22:02:52.092Z,24.55
2022-08-26T22:05:20.929Z,24.00
2022-08-26T22:07:49.447Z,24.38
2022-08-26T22:10:18.048Z,23.38
2022-08-26T22:12:47.012Z,23.25
2022-08-26T22:15:15.874Z,22.42
2022-08-26T22:17:44.510Z,23.33
2022-08-26T22:20:16.374Z,24.27
2022-08-26T22:22:45.766Z,23.42
2022-08-26T22:25:14.562Z,22.85
2022-08-26T22:27:43.048Z,23.63
2022-08-26T22:30:12.069Z,23.20
2022-08-26T22:32:40.974Z,24.25
2022-08-26T22:35:28.707Z,19.65
2022-08-26T22:37:59.748Z,21.75
2022-08-26T22:40:29.147Z,21.42
2022-08-26T22:43:00.404Z,22.95
2022-08-26T22:45:30.112Z,23.30
2022-08-26T22:47:58.965Z,23.75
2022-08-26T22:50:27.952Z,21.50
2022-08-26T22:52:56.532Z,20.02
2022-08-26T22:55:27.039Z,21.65
2022-08-26T22:57:55.681Z,20.70
2022-08-26T23:00:32.073Z,23.20
2022-08-26T23:03:01.514Z,21.80
2022-08-26T23:05:31.063Z,20.42
2022-08-26T23:07:59.643Z,23.27
2022-08-26T23:10:29.789Z,19.83
2022-08-26T23:12:58.898Z,21.55
2022-08-26T23:15:27.706Z,18.70
2022-08-26T23:17:58.810Z,18.65
2022-08-26T23:20:28.134Z,20.63
2022-08-26T23:22:56.985Z,20.98
2022-08-26T23:25:25.747Z,20.63
2022-08-26T23:27:55.660Z,23.25
2022-08-26T23:30:25.643Z,23.27
2022-08-26T23:32:54.132Z,22.90
2022-08-26T23:35:22.216Z,22.17
2022-08-26T23:37:52.477Z,23.92
2022-08-26T23:40:22.361Z,24.73
2022-08-26T23:42:52.598Z,25.45
2022-08-26T23:45:24.734Z,26.60
2022-08-26T23:47:53.298Z,26.77
2022-08-26T23:50:23.006Z,28.10
2022-08-26T23:53:08.768Z,29.65
2022-08-26T23:55:37.734Z,25.92
2022-08-26T23:58:08.258Z,27.10
